sensor_id;sensor_type;location;lat;lon;timestamp;pressure;altitude;pressure_sealevel;temperature
29423;BMP180;16399;51.686;8.684;2022-09-09T00:02:28;99176.00;;;17.20
29423;BMP180;16399;51.686;8.684;2022-09-09T00:06:00;99169.00;;;17.20
29423;BMP180;16399;51.686;8.684;2022-09-09T00:09:19;99168.00;;;17.20
29423;BMP180;16399;51.686;8.684;2022-09-09T00:12:36;99168.00;;;17.30
29423;BMP180;16399;51.686;8.684;2022-09-09T00:19:59;99158.00;;;17.30
29423;BMP180;16399;51.686;8.684;2022-09-09T00:22:17;99157.00;;;17.30
29423;BMP180;16399;51.686;8.684;2022-09-09T00:25:31;99156.00;;;17.30
29423;BMP180;16399;51.686;8.684;2022-09-09T00:28:28;99147.00;;;17.40
29423;BMP180;16399;51.686;8.684;2022-09-09T00:31:33;99157.00;;;17.40
29423;BMP180;16399;51.686;8.684;2022-09-09T00:34:36;99149.00;;;17.40
29423;BMP180;16399;51.686;8.684;2022-09-09T00:37:40;99153.00;;;17.40
29423;BMP180;16399;51.686;8.684;2022-09-09T00:44:29;99156.00;;;17.50
29423;BMP180;16399;51.686;8.684;2022-09-09T00:47:43;99160.00;;;17.50
29423;BMP180;16399;51.686;8.684;2022-09-09T00:50:50;99155.00;;;17.60
29423;BMP180;16399;51.686;8.684;2022-09-09T00:54:14;99161.00;;;17.60
29423;BMP180;16399;51.686;8.684;2022-09-09T00:57:23;99165.00;;;17.60
29423;BMP180;16399;51.686;8.684;2022-09-09T01:00:31;99161.00;;;17.70
29423;BMP180;16399;51.686;8.684;2022-09-09T01:03:36;99167.00;;;17.60
29423;BMP180;16399;51.686;8.684;2022-09-09T01:06:39;99167.00;;;17.60
29423;BMP180;16399;51.686;8.684;2022-09-09T01:09:46;99165.00;;;17.60
29423;BMP180;16399;51.686;8.684;2022-09-09T01:12:47;99177.00;;;17.60
29423;BMP180;16399;51.686;8.684;2022-09-09T01:15:51;99175.00;;;17.60
29423;BMP180;16399;51.686;8.684;2022-09-09T01:18:56;99170.00;;;17.50
29423;BMP180;16399;51.686;8.684;2022-09-09T01:22:03;99167.00;;;17.50
29423;BMP180;16399;51.686;8.684;2022-09-09T01:25:25;99174.00;;;17.50
29423;BMP180;16399;51.686;8.684;2022-09-09T01:28:27;99172.00;;;17.40
29423;BMP180;16399;51.686;8.684;2022-09-09T01:31:51;99164.00;;;17.40
29423;BMP180;16399;51.686;8.684;2022-09-09T01:34:38;99171.00;;;17.40
29423;BMP180;16399;51.686;8.684;2022-09-09T01:37:41;99161.00;;;17.30
29423;BMP180;16399;51.686;8.684;2022-09-09T01:40:44;99176.00;;;17.30
29423;BMP180;16399;51.686;8.684;2022-09-09T01:43:47;99163.00;;;17.30
29423;BMP180;16399;51.686;8.684;2022-09-09T01:46:49;99169.00;;;17.20
29423;BMP180;16399;51.686;8.684;2022-09-09T01:49:52;99161.00;;;17.10
29423;BMP180;16399;51.686;8.684;2022-09-09T01:52:56;99162.00;;;17.10
29423;BMP180;16399;51.686;8.684;2022-09-09T01:59:22;99161.00;;;17.00
29423;BMP180;16399;51.686;8.684;2022-09-09T02:02:36;99156.00;;;17.00
29423;BMP180;16399;51.686;8.684;2022-09-09T02:05:52;99153.00;;;16.90
29423;BMP180;16399;51.686;8.684;2022-09-09T02:08:52;99156.00;;;16.90
29423;BMP180;16399;51.686;8.684;2022-09-09T02:12:06;99152.00;;;16.90
29423;BMP180;16399;51.686;8.684;2022-09-09T02:15:07;99147.00;;;16.90
29423;BMP180;16399;51.686;8.684;2022-09-09T02:18:10;99151.00;;;16.90
29423;BMP180;16399;51.686;8.684;2022-09-09T02:21:15;99152.00;;;16.90
29423;BMP180;16399;51.686;8.684;2022-09-09T02:24:18;99157.00;;;16.90
29423;BMP180;16399;51.686;8.684;2022-09-09T02:27:21;99150.00;;;16.90
29423;BMP180;16399;51.686;8.684;2022-09-09T02:30:24;99156.00;;;16.90
29423;BMP180;16399;51.686;8.684;2022-09-09T02:33:30;99161.00;;;16.90
29423;BMP180;16399;51.686;8.684;2022-09-09T02:36:34;99159.00;;;16.90
29423;BMP180;16399;51.686;8.684;2022-09-09T02:39:38;99167.00;;;16.90
29423;BMP180;16399;51.686;8.684;2022-09-09T02:42:47;99167.00;;;16.90
29423;BMP180;16399;51.686;8.684;2022-09-09T02:46:30;99167.00;;;16.80
29423;BMP180;16399;51.686;8.684;2022-09-09T02:48:59;99157.00;;;16.80
29423;BMP180;16399;51.686;8.684;2022-09-09T02:52:04;99159.00;;;16.80
29423;BMP180;16399;51.686;8.684;2022-09-09T02:55:16;99162.00;;;16.80
29423;BMP180;16399;51.686;8.684;2022-09-09T02:58:18;99161.00;;;16.80
29423;BMP180;16399;51.686;8.684;2022-09-09T03:01:21;99167.00;;;16.80
29423;BMP180;16399;51.686;8.684;2022-09-09T03:04:23;99166.00;;;16.80
29423;BMP180;16399;51.686;8.684;2022-09-09T03:07:26;99168.00;;;16.80
29423;BMP180;16399;51.686;8.684;2022-09-09T03:10:28;99172.00;;;16.80
29423;BMP180;16399;51.686;8.684;2022-09-09T03:13:30;99175.00;;;16.80
29423;BMP180;16399;51.686;8.684;2022-09-09T03:16:33;99183.00;;;16.80
29423;BMP180;16399;51.686;8.684;2022-09-09T03:19:35;99175.00;;;16.80
29423;BMP180;16399;51.686;8.684;2022-09-09T03:22:38;99179.00;;;16.80
29423;BMP180;16399;51.686;8.684;2022-09-09T03:25:51;99178.00;;;16.80
29423;BMP180;16399;51.686;8.684;2022-09-09T03:28:56;99174.00;;;16.70
29423;BMP180;16399;51.686;8.684;2022-09-09T03:31:58;99173.00;;;16.70
29423;BMP180;16399;51.686;8.684;2022-09-09T03:35:00;99160.00;;;16.70
29423;BMP180;16399;51.686;8.684;2022-09-09T03:38:03;99164.00;;;16.70
29423;BMP180;16399;51.686;8.684;2022-09-09T03:41:05;99160.00;;;16.70
29423;BMP180;16399;51.686;8.684;2022-09-09T03:44:08;99161.00;;;16.70
29423;BMP180;16399;51.686;8.684;2022-09-09T03:47:11;99153.00;;;16.70
29423;BMP180;16399;51.686;8.684;2022-09-09T03:50:13;99157.00;;;16.70
29423;BMP180;16399;51.686;8.684;2022-09-09T03:53:17;99160.00;;;16.70
29423;BMP180;16399;51.686;8.684;2022-09-09T03:56:20;99148.00;;;16.70
29423;BMP180;16399;51.686;8.684;2022-09-09T03:59:22;99159.00;;;16.70
29423;BMP180;16399;51.686;8.684;2022-09-09T04:02:25;99152.00;;;16.70
29423;BMP180;16399;51.686;8.684;2022-09-09T04:05:27;99146.00;;;16.70
29423;BMP180;16399;51.686;8.684;2022-09-09T04:08:30;99153.00;;;16.70
29423;BMP180;16399;51.686;8.684;2022-09-09T04:11:32;99157.00;;;16.70
29423;BMP180;16399;51.686;8.684;2022-09-09T04:14:35;99159.00;;;16.70
29423;BMP180;16399;51.686;8.684;2022-09-09T04:17:37;99152.00;;;16.70
29423;BMP180;16399;51.686;8.684;2022-09-09T04:20:39;99159.00;;;16.70
29423;BMP180;16399;51.686;8.684;2022-09-09T04:23:42;99165.00;;;16.70
29423;BMP180;16399;51.686;8.684;2022-09-09T04:26:44;99162.00;;;16.70
29423;BMP180;16399;51.686;8.684;2022-09-09T04:29:46;99167.00;;;16.80
29423;BMP180;16399;51.686;8.684;2022-09-09T04:32:48;99160.00;;;16.80
29423;BMP180;16399;51.686;8.684;2022-09-09T04:35:51;99163.00;;;16.80
29423;BMP180;16399;51.686;8.684;2022-09-09T04:38:56;99156.00;;;16.80
29423;BMP180;16399;51.686;8.684;2022-09-09T04:41:58;99167.00;;;16.80
29423;BMP180;16399;51.686;8.684;2022-09-09T04:45:00;99177.00;;;16.80
29423;BMP180;16399;51.686;8.684;2022-09-09T04:48:03;99169.00;;;16.70
29423;BMP180;16399;51.686;8.684;2022-09-09T04:51:13;99182.00;;;16.70
29423;BMP180;16399;51.686;8.684;2022-09-09T04:54:10;99168.00;;;16.70
29423;BMP180;16399;51.686;8.684;2022-09-09T04:57:12;99179.00;;;16.70
29423;BMP180;16399;51.686;8.684;2022-09-09T05:00:15;99176.00;;;16.60
29423;BMP180;16399;51.686;8.684;2022-09-09T05:03:18;99179.00;;;16.60
29423;BMP180;16399;51.686;8.684;2022-09-09T05:06:22;99167.00;;;16.60
29423;BMP180;16399;51.686;8.684;2022-09-09T05:09:24;99168.00;;;16.60
29423;BMP180;16399;51.686;8.684;2022-09-09T05:12:26;99180.00;;;16.60
29423;BMP180;16399;51.686;8.684;2022-09-09T05:15:29;99177.00;;;16.60
29423;BMP180;16399;51.686;8.684;2022-09-09T05:18:31;99178.00;;;16.60
29423;BMP180;16399;51.686;8.684;2022-09-09T05:21:34;99176.00;;;16.60
29423;BMP180;16399;51.686;8.684;2022-09-09T05:24:36;99182.00;;;16.60
29423;BMP180;16399;51.686;8.684;2022-09-09T05:27:39;99184.00;;;16.70
29423;BMP180;16399;51.686;8.684;2022-09-09T05:30:41;99187.00;;;16.70
29423;BMP180;16399;51.686;8.684;2022-09-09T05:33:45;99182.00;;;16.80
29423;BMP180;16399;51.686;8.684;2022-09-09T05:36:47;99180.00;;;16.90
29423;BMP180;16399;51.686;8.684;2022-09-09T05:39:49;99174.00;;;16.90
29423;BMP180;16399;51.686;8.684;2022-09-09T05:42:52;99170.00;;;17.10
29423;BMP180;16399;51.686;8.684;2022-09-09T05:46:02;99183.00;;;17.20
29423;BMP180;16399;51.686;8.684;2022-09-09T05:49:05;99185.00;;;17.40
29423;BMP180;16399;51.686;8.684;2022-09-09T05:52:07;99184.00;;;17.60
29423;BMP180;16399;51.686;8.684;2022-09-09T05:55:11;99174.00;;;17.80
29423;BMP180;16399;51.686;8.684;2022-09-09T05:58:13;99177.00;;;18.00
29423;BMP180;16399;51.686;8.684;2022-09-09T06:01:19;99174.00;;;18.10
29423;BMP180;16399;51.686;8.684;2022-09-09T06:04:22;99173.00;;;18.30
29423;BMP180;16399;51.686;8.684;2022-09-09T06:07:25;99176.00;;;18.30
29423;BMP180;16399;51.686;8.684;2022-09-09T06:10:28;99165.00;;;18.30
29423;BMP180;16399;51.686;8.684;2022-09-09T06:13:30;99174.00;;;18.30
29423;BMP180;16399;51.686;8.684;2022-09-09T06:16:34;99177.00;;;18.30
29423;BMP180;16399;51.686;8.684;2022-09-09T06:19:36;99181.00;;;18.20
29423;BMP180;16399;51.686;8.684;2022-09-09T06:22:40;99182.00;;;18.20
29423;BMP180;16399;51.686;8.684;2022-09-09T06:25:42;99178.00;;;18.20
29423;BMP180;16399;51.686;8.684;2022-09-09T06:28:47;99180.00;;;18.20
29423;BMP180;16399;51.686;8.684;2022-09-09T06:31:49;99187.00;;;18.20
29423;BMP180;16399;51.686;8.684;2022-09-09T06:34:51;99189.00;;;18.20
29423;BMP180;16399;51.686;8.684;2022-09-09T06:37:54;99187.00;;;18.30
29423;BMP180;16399;51.686;8.684;2022-09-09T06:40:57;99194.00;;;18.30
29423;BMP180;16399;51.686;8.684;2022-09-09T06:44:00;99199.00;;;18.30
29423;BMP180;16399;51.686;8.684;2022-09-09T06:47:03;99200.00;;;18.30
29423;BMP180;16399;51.686;8.684;2022-09-09T06:50:05;99197.00;;;18.20
29423;BMP180;16399;51.686;8.684;2022-09-09T06:53:08;99198.00;;;18.20
29423;BMP180;16399;51.686;8.684;2022-09-09T06:56:18;99210.00;;;18.10
29423;BMP180;16399;51.686;8.684;2022-09-09T06:59:22;99211.00;;;18.10
29423;BMP180;16399;51.686;8.684;2022-09-09T07:02:25;99208.00;;;18.10
29423;BMP180;16399;51.686;8.684;2022-09-09T07:05:27;99205.00;;;18.00
29423;BMP180;16399;51.686;8.684;2022-09-09T07:08:29;99200.00;;;18.00
29423;BMP180;16399;51.686;8.684;2022-09-09T07:11:37;99214.00;;;18.00
29423;BMP180;16399;51.686;8.684;2022-09-09T07:14:37;99204.00;;;18.00
29423;BMP180;16399;51.686;8.684;2022-09-09T07:17:39;99206.00;;;18.00
29423;BMP180;16399;51.686;8.684;2022-09-09T07:20:42;99196.00;;;18.10
29423;BMP180;16399;51.686;8.684;2022-09-09T07:23:44;99202.00;;;18.10
29423;BMP180;16399;51.686;8.684;2022-09-09T07:26:46;99196.00;;;18.20
29423;BMP180;16399;51.686;8.684;2022-09-09T07:29:49;99198.00;;;18.30
29423;BMP180;16399;51.686;8.684;2022-09-09T07:32:52;99197.00;;;18.40
29423;BMP180;16399;51.686;8.684;2022-09-09T07:36:01;99201.00;;;18.40
29423;BMP180;16399;51.686;8.684;2022-09-09T07:39:01;99192.00;;;18.50
29423;BMP180;16399;51.686;8.684;2022-09-09T07:42:03;99205.00;;;18.60
29423;BMP180;16399;51.686;8.684;2022-09-09T07:45:06;99197.00;;;18.70
29423;BMP180;16399;51.686;8.684;2022-09-09T07:48:09;99209.00;;;18.90
29423;BMP180;16399;51.686;8.684;2022-09-09T07:51:14;99211.00;;;18.90
29423;BMP180;16399;51.686;8.684;2022-09-09T07:54:20;99203.00;;;18.90
29423;BMP180;16399;51.686;8.684;2022-09-09T07:57:24;99218.00;;;18.90
29423;BMP180;16399;51.686;8.684;2022-09-09T08:00:26;99224.00;;;18.70
29423;BMP180;16399;51.686;8.684;2022-09-09T08:03:29;99228.00;;;18.50
29423;BMP180;16399;51.686;8.684;2022-09-09T08:06:34;99238.00;;;18.20
29423;BMP180;16399;51.686;8.684;2022-09-09T08:09:36;99234.00;;;18.00
29423;BMP180;16399;51.686;8.684;2022-09-09T08:12:38;99224.00;;;17.80
29423;BMP180;16399;51.686;8.684;2022-09-09T08:15:41;99228.00;;;17.80
29423;BMP180;16399;51.686;8.684;2022-09-09T08:18:44;99217.00;;;18.10
29423;BMP180;16399;51.686;8.684;2022-09-09T08:21:46;99207.00;;;18.40
29423;BMP180;16399;51.686;8.684;2022-09-09T08:24:50;99207.00;;;18.80
29423;BMP180;16399;51.686;8.684;2022-09-09T08:27:53;99214.00;;;19.10
29423;BMP180;16399;51.686;8.684;2022-09-09T08:30:55;99210.00;;;19.20
29423;BMP180;16399;51.686;8.684;2022-09-09T08:33:58;99218.00;;;19.40
29423;BMP180;16399;51.686;8.684;2022-09-09T08:37:01;99221.00;;;19.60
29423;BMP180;16399;51.686;8.684;2022-09-09T08:40:03;99224.00;;;19.50
29423;BMP180;16399;51.686;8.684;2022-09-09T08:43:06;99223.00;;;19.50
29423;BMP180;16399;51.686;8.684;2022-09-09T08:46:11;99231.00;;;19.50
29423;BMP180;16399;51.686;8.684;2022-09-09T08:52:37;99232.00;;;19.50
29423;BMP180;16399;51.686;8.684;2022-09-09T08:55:51;99234.00;;;19.50
29423;BMP180;16399;51.686;8.684;2022-09-09T08:58:56;99241.00;;;19.50
29423;BMP180;16399;51.686;8.684;2022-09-09T09:02:03;99242.00;;;19.60
29423;BMP180;16399;51.686;8.684;2022-09-09T09:08:26;99229.00;;;19.60
29423;BMP180;16399;51.686;8.684;2022-09-09T09:11:50;99221.00;;;19.80
29423;BMP180;16399;51.686;8.684;2022-09-09T09:14:50;99233.00;;;19.90
29423;BMP180;16399;51.686;8.684;2022-09-09T09:17:52;99222.00;;;19.90
29423;BMP180;16399;51.686;8.684;2022-09-09T09:21:04;99234.00;;;19.90
29423;BMP180;16399;51.686;8.684;2022-09-09T09:24:12;99233.00;;;19.90
29423;BMP180;16399;51.686;8.684;2022-09-09T09:27:18;99223.00;;;19.90
29423;BMP180;16399;51.686;8.684;2022-09-09T09:30:22;99231.00;;;19.90
29423;BMP180;16399;51.686;8.684;2022-09-09T09:33:45;99227.00;;;19.90
29423;BMP180;16399;51.686;8.684;2022-09-09T09:36:57;99204.00;;;19.90
29423;BMP180;16399;51.686;8.684;2022-09-09T09:39:56;99216.00;;;20.00
29423;BMP180;16399;51.686;8.684;2022-09-09T09:43:00;99215.00;;;20.20
29423;BMP180;16399;51.686;8.684;2022-09-09T09:46:05;99207.00;;;20.40
29423;BMP180;16399;51.686;8.684;2022-09-09T09:49:10;99213.00;;;20.60
29423;BMP180;16399;51.686;8.684;2022-09-09T09:52:16;99202.00;;;20.80
29423;BMP180;16399;51.686;8.684;2022-09-09T09:55:19;99214.00;;;21.00
29423;BMP180;16399;51.686;8.684;2022-09-09T09:58:21;99215.00;;;21.00
29423;BMP180;16399;51.686;8.684;2022-09-09T10:01:29;99223.00;;;20.90
29423;BMP180;16399;51.686;8.684;2022-09-09T10:04:33;99219.00;;;20.80
29423;BMP180;16399;51.686;8.684;2022-09-09T10:07:35;99218.00;;;20.70
29423;BMP180;16399;51.686;8.684;2022-09-09T10:11:04;99216.00;;;20.90
29423;BMP180;16399;51.686;8.684;2022-09-09T10:14:16;99217.00;;;21.00
29423;BMP180;16399;51.686;8.684;2022-09-09T10:21:09;99211.00;;;21.00
29423;BMP180;16399;51.686;8.684;2022-09-09T10:31:02;99205.00;;;21.20
29423;BMP180;16399;51.686;8.684;2022-09-09T10:34:14;99199.00;;;21.30
29423;BMP180;16399;51.686;8.684;2022-09-09T10:37:28;99189.00;;;21.50
29423;BMP180;16399;51.686;8.684;2022-09-09T10:40:47;99190.00;;;22.00
29423;BMP180;16399;51.686;8.684;2022-09-09T10:47:54;99186.00;;;22.50
29423;BMP180;16399;51.686;8.684;2022-09-09T10:51:02;99187.00;;;22.70
29423;BMP180;16399;51.686;8.684;2022-09-09T10:54:10;99187.00;;;22.60
29423;BMP180;16399;51.686;8.684;2022-09-09T10:57:17;99189.00;;;22.50
29423;BMP180;16399;51.686;8.684;2022-09-09T11:00:23;99177.00;;;22.40
29423;BMP180;16399;51.686;8.684;2022-09-09T11:03:28;99173.00;;;22.60
29423;BMP180;16399;51.686;8.684;2022-09-09T11:06:39;99180.00;;;22.70
29423;BMP180;16399;51.686;8.684;2022-09-09T11:09:49;99191.00;;;22.80
29423;BMP180;16399;51.686;8.684;2022-09-09T11:12:54;99181.00;;;22.90
29423;BMP180;16399;51.686;8.684;2022-09-09T11:16:00;99174.00;;;22.90
29423;BMP180;16399;51.686;8.684;2022-09-09T11:19:15;99184.00;;;22.90
29423;BMP180;16399;51.686;8.684;2022-09-09T11:22:16;99177.00;;;23.00
29423;BMP180;16399;51.686;8.684;2022-09-09T11:25:25;99190.00;;;23.20
29423;BMP180;16399;51.686;8.684;2022-09-09T11:35:35;99194.00;;;23.10
29423;BMP180;16399;51.686;8.684;2022-09-09T11:38:47;99189.00;;;22.80
29423;BMP180;16399;51.686;8.684;2022-09-09T11:41:52;99190.00;;;22.50
29423;BMP180;16399;51.686;8.684;2022-09-09T11:44:54;99200.00;;;22.40
29423;BMP180;16399;51.686;8.684;2022-09-09T11:48:00;99186.00;;;22.30
29423;BMP180;16399;51.686;8.684;2022-09-09T11:51:08;99194.00;;;22.40
29423;BMP180;16399;51.686;8.684;2022-09-09T11:54:31;99196.00;;;22.60
29423;BMP180;16399;51.686;8.684;2022-09-09T11:57:35;99183.00;;;22.60
29423;BMP180;16399;51.686;8.684;2022-09-09T12:00:38;99197.00;;;22.50
29423;BMP180;16399;51.686;8.684;2022-09-09T12:03:48;99204.00;;;22.40
29423;BMP180;16399;51.686;8.684;2022-09-09T12:06:59;99180.00;;;22.30
29423;BMP180;16399;51.686;8.684;2022-09-09T12:10:31;99184.00;;;22.40
29423;BMP180;16399;51.686;8.684;2022-09-09T12:13:34;99194.00;;;22.60
29423;BMP180;16399;51.686;8.684;2022-09-09T12:16:37;99188.00;;;22.70
29423;BMP180;16399;51.686;8.684;2022-09-09T12:19:42;99186.00;;;22.60
29423;BMP180;16399;51.686;8.684;2022-09-09T12:26:21;99189.00;;;22.90
29423;BMP180;16399;51.686;8.684;2022-09-09T12:29:25;99189.00;;;23.00
29423;BMP180;16399;51.686;8.684;2022-09-09T12:32:27;99193.00;;;23.20
29423;BMP180;16399;51.686;8.684;2022-09-09T12:35:31;99191.00;;;23.30
29423;BMP180;16399;51.686;8.684;2022-09-09T12:38:40;99183.00;;;23.00
29423;BMP180;16399;51.686;8.684;2022-09-09T12:41:53;99188.00;;;23.10
29423;BMP180;16399;51.686;8.684;2022-09-09T12:44:56;99178.00;;;23.20
29423;BMP180;16399;51.686;8.684;2022-09-09T12:48:04;99190.00;;;23.40
29423;BMP180;16399;51.686;8.684;2022-09-09T12:51:28;99190.00;;;23.40
29423;BMP180;16399;51.686;8.684;2022-09-09T12:54:15;99180.00;;;23.40
29423;BMP180;16399;51.686;8.684;2022-09-09T12:57:18;99181.00;;;23.60
29423;BMP180;16399;51.686;8.684;2022-09-09T13:00:22;99186.00;;;23.40
29423;BMP180;16399;51.686;8.684;2022-09-09T13:03:25;99183.00;;;23.20
29423;BMP180;16399;51.686;8.684;2022-09-09T13:06:30;99178.00;;;22.90
29423;BMP180;16399;51.686;8.684;2022-09-09T13:09:32;99171.00;;;22.80
29423;BMP180;16399;51.686;8.684;2022-09-09T13:12:35;99165.00;;;22.90
29423;BMP180;16399;51.686;8.684;2022-09-09T13:15:37;99149.00;;;23.10
29423;BMP180;16399;51.686;8.684;2022-09-09T13:18:41;99151.00;;;23.30
29423;BMP180;16399;51.686;8.684;2022-09-09T13:21:43;99166.00;;;23.50
29423;BMP180;16399;51.686;8.684;2022-09-09T13:24:45;99149.00;;;23.40
29423;BMP180;16399;51.686;8.684;2022-09-09T13:28:04;99156.00;;;23.50
29423;BMP180;16399;51.686;8.684;2022-09-09T13:31:21;99148.00;;;23.30
29423;BMP180;16399;51.686;8.684;2022-09-09T13:34:30;99152.00;;;23.20
29423;BMP180;16399;51.686;8.684;2022-09-09T13:37:37;99151.00;;;23.10
29423;BMP180;16399;51.686;8.684;2022-09-09T13:40:53;99143.00;;;23.10
29423;BMP180;16399;51.686;8.684;2022-09-09T13:43:56;99134.00;;;23.20
29423;BMP180;16399;51.686;8.684;2022-09-09T13:47:06;99134.00;;;23.40
29423;BMP180;16399;51.686;8.684;2022-09-09T13:53:25;99133.00;;;23.50
29423;BMP180;16399;51.686;8.684;2022-09-09T13:56:28;99130.00;;;23.50
29423;BMP180;16399;51.686;8.684;2022-09-09T13:59:30;99139.00;;;23.60
29423;BMP180;16399;51.686;8.684;2022-09-09T14:02:33;99130.00;;;23.50
29423;BMP180;16399;51.686;8.684;2022-09-09T14:05:35;99141.00;;;23.40
29423;BMP180;16399;51.686;8.684;2022-09-09T14:08:38;99122.00;;;23.30
29423;BMP180;16399;51.686;8.684;2022-09-09T14:11:41;99143.00;;;23.40
29423;BMP180;16399;51.686;8.684;2022-09-09T14:14:44;99140.00;;;23.40
29423;BMP180;16399;51.686;8.684;2022-09-09T14:17:46;99141.00;;;23.30
29423;BMP180;16399;51.686;8.684;2022-09-09T14:20:49;99133.00;;;23.10
29423;BMP180;16399;51.686;8.684;2022-09-09T14:23:52;99134.00;;;23.10
29423;BMP180;16399;51.686;8.684;2022-09-09T14:26:54;99142.00;;;23.20
29423;BMP180;16399;51.686;8.684;2022-09-09T14:29:57;99145.00;;;23.20
29423;BMP180;16399;51.686;8.684;2022-09-09T14:32:59;99140.00;;;23.10
29423;BMP180;16399;51.686;8.684;2022-09-09T14:36:03;99142.00;;;23.00
29423;BMP180;16399;51.686;8.684;2022-09-09T14:39:05;99138.00;;;23.10
29423;BMP180;16399;51.686;8.684;2022-09-09T14:42:07;99137.00;;;23.00
29423;BMP180;16399;51.686;8.684;2022-09-09T14:45:11;99144.00;;;22.90
29423;BMP180;16399;51.686;8.684;2022-09-09T14:48:15;99137.00;;;22.80
29423;BMP180;16399;51.686;8.684;2022-09-09T14:51:21;99141.00;;;22.70
29423;BMP180;16399;51.686;8.684;2022-09-09T14:54:25;99130.00;;;22.70
29423;BMP180;16399;51.686;8.684;2022-09-09T14:57:29;99131.00;;;22.60
29423;BMP180;16399;51.686;8.684;2022-09-09T15:00:31;99130.00;;;22.50
29423;BMP180;16399;51.686;8.684;2022-09-09T15:03:34;99130.00;;;22.50
29423;BMP180;16399;51.686;8.684;2022-09-09T15:06:36;99141.00;;;22.50
29423;BMP180;16399;51.686;8.684;2022-09-09T15:09:40;99139.00;;;22.40
29423;BMP180;16399;51.686;8.684;2022-09-09T15:12:42;99136.00;;;22.30
29423;BMP180;16399;51.686;8.684;2022-09-09T15:15:45;99137.00;;;22.30
29423;BMP180;16399;51.686;8.684;2022-09-09T15:18:50;99148.00;;;22.40
29423;BMP180;16399;51.686;8.684;2022-09-09T15:21:53;99135.00;;;22.50
29423;BMP180;16399;51.686;8.684;2022-09-09T15:24:55;99128.00;;;22.60
29423;BMP180;16399;51.686;8.684;2022-09-09T15:27:58;99130.00;;;22.50
29423;BMP180;16399;51.686;8.684;2022-09-09T15:31:01;99138.00;;;22.50
29423;BMP180;16399;51.686;8.684;2022-09-09T15:34:07;99132.00;;;22.40
29423;BMP180;16399;51.686;8.684;2022-09-09T15:37:10;99128.00;;;22.30
29423;BMP180;16399;51.686;8.684;2022-09-09T15:40:16;99133.00;;;22.20
29423;BMP180;16399;51.686;8.684;2022-09-09T15:43:18;99129.00;;;22.10
29423;BMP180;16399;51.686;8.684;2022-09-09T15:49:40;99129.00;;;22.00
29423;BMP180;16399;51.686;8.684;2022-09-09T15:52:42;99129.00;;;22.00
29423;BMP180;16399;51.686;8.684;2022-09-09T15:55:44;99129.00;;;22.00
29423;BMP180;16399;51.686;8.684;2022-09-09T15:58:47;99126.00;;;21.90
29423;BMP180;16399;51.686;8.684;2022-09-09T16:01:49;99122.00;;;21.80
29423;BMP180;16399;51.686;8.684;2022-09-09T16:04:54;99125.00;;;21.70
29423;BMP180;16399;51.686;8.684;2022-09-09T16:07:57;99136.00;;;21.70
29423;BMP180;16399;51.686;8.684;2022-09-09T16:11:13;99131.00;;;21.60
29423;BMP180;16399;51.686;8.684;2022-09-09T16:14:16;99135.00;;;21.50
29423;BMP180;16399;51.686;8.684;2022-09-09T16:17:18;99139.00;;;21.50
29423;BMP180;16399;51.686;8.684;2022-09-09T16:20:21;99145.00;;;21.50
29423;BMP180;16399;51.686;8.684;2022-09-09T16:23:23;99148.00;;;21.40
29423;BMP180;16399;51.686;8.684;2022-09-09T16:26:27;99153.00;;;21.30
29423;BMP180;16399;51.686;8.684;2022-09-09T16:29:29;99154.00;;;21.20
29423;BMP180;16399;51.686;8.684;2022-09-09T16:32:31;99158.00;;;21.10
29423;BMP180;16399;51.686;8.684;2022-09-09T16:35:37;99172.00;;;21.10
29423;BMP180;16399;51.686;8.684;2022-09-09T16:38:40;99174.00;;;20.90
29423;BMP180;16399;51.686;8.684;2022-09-09T16:41:43;99193.00;;;20.70
29423;BMP180;16399;51.686;8.684;2022-09-09T16:44:46;99193.00;;;20.50
29423;BMP180;16399;51.686;8.684;2022-09-09T16:47:48;99193.00;;;20.20
29423;BMP180;16399;51.686;8.684;2022-09-09T16:50:50;99202.00;;;19.90
29423;BMP180;16399;51.686;8.684;2022-09-09T16:53:54;99213.00;;;19.70
29423;BMP180;16399;51.686;8.684;2022-09-09T16:56:57;99216.00;;;19.50
29423;BMP180;16399;51.686;8.684;2022-09-09T17:00:01;99218.00;;;19.40
29423;BMP180;16399;51.686;8.684;2022-09-09T17:03:04;99220.00;;;19.20
29423;BMP180;16399;51.686;8.684;2022-09-09T17:06:14;99220.00;;;19.10
29423;BMP180;16399;51.686;8.684;2022-09-09T17:09:18;99231.00;;;19.00
29423;BMP180;16399;51.686;8.684;2022-09-09T17:12:20;99226.00;;;18.80
29423;BMP180;16399;51.686;8.684;2022-09-09T17:15:23;99229.00;;;18.70
29423;BMP180;16399;51.686;8.684;2022-09-09T17:18:27;99232.00;;;18.70
29423;BMP180;16399;51.686;8.684;2022-09-09T17:21:30;99230.00;;;18.60
29423;BMP180;16399;51.686;8.684;2022-09-09T17:24:33;99237.00;;;18.60
29423;BMP180;16399;51.686;8.684;2022-09-09T17:27:35;99239.00;;;18.50
29423;BMP180;16399;51.686;8.684;2022-09-09T17:30:37;99233.00;;;18.50
29423;BMP180;16399;51.686;8.684;2022-09-09T17:33:41;99237.00;;;18.40
29423;BMP180;16399;51.686;8.684;2022-09-09T17:36:44;99240.00;;;18.40
29423;BMP180;16399;51.686;8.684;2022-09-09T17:39:46;99245.00;;;18.40
29423;BMP180;16399;51.686;8.684;2022-09-09T17:42:48;99257.00;;;18.30
29423;BMP180;16399;51.686;8.684;2022-09-09T17:45:51;99276.00;;;18.30
29423;BMP180;16399;51.686;8.684;2022-09-09T17:48:56;99281.00;;;18.20
29423;BMP180;16399;51.686;8.684;2022-09-09T17:51:58;99279.00;;;18.20
29423;BMP180;16399;51.686;8.684;2022-09-09T17:55:00;99274.00;;;18.10
29423;BMP180;16399;51.686;8.684;2022-09-09T17:58:03;99278.00;;;18.10
29423;BMP180;16399;51.686;8.684;2022-09-09T18:01:10;99282.00;;;18.00
29423;BMP180;16399;51.686;8.684;2022-09-09T18:04:14;99281.00;;;18.00
29423;BMP180;16399;51.686;8.684;2022-09-09T18:07:17;99278.00;;;17.90
29423;BMP180;16399;51.686;8.684;2022-09-09T18:10:21;99271.00;;;17.90
29423;BMP180;16399;51.686;8.684;2022-09-09T18:13:23;99280.00;;;17.80
29423;BMP180;16399;51.686;8.684;2022-09-09T18:16:26;99281.00;;;17.70
29423;BMP180;16399;51.686;8.684;2022-09-09T18:19:30;99283.00;;;17.60
29423;BMP180;16399;51.686;8.684;2022-09-09T18:22:33;99286.00;;;17.60
29423;BMP180;16399;51.686;8.684;2022-09-09T18:25:39;99281.00;;;17.50
29423;BMP180;16399;51.686;8.684;2022-09-09T18:28:42;99285.00;;;17.40
29423;BMP180;16399;51.686;8.684;2022-09-09T18:31:46;99280.00;;;17.40
29423;BMP180;16399;51.686;8.684;2022-09-09T18:34:48;99292.00;;;17.30